sensor_id;sensor_type;location;lat;lon;timestamp;pressure;altitude;pressure_sealevel;temperature
69590;BMP180;56792;50.644;17.984;2023-04-03T00:01:15;100253.20;;;2.96
69590;BMP180;56792;50.644;17.984;2023-04-03T00:03:43;100250.80;;;2.96
69590;BMP180;56792;50.644;17.984;2023-04-03T00:06:12;100258.40;;;2.98
69590;BMP180;56792;50.644;17.984;2023-04-03T00:08:41;100251.80;;;2.90
69590;BMP180;56792;50.644;17.984;2023-04-03T00:11:09;100254.20;;;2.90
69590;BMP180;56792;50.644;17.984;2023-04-03T00:13:39;100252.80;;;2.90
69590;BMP180;56792;50.644;17.984;2023-04-03T00:16:09;100255.80;;;2.90
69590;BMP180;56792;50.644;17.984;2023-04-03T00:18:39;100259.60;;;2.90
69590;BMP180;56792;50.644;17.984;2023-04-03T00:21:09;100263.60;;;2.86
69590;BMP180;56792;50.644;17.984;2023-04-03T00:23:38;100264.20;;;2.80
69590;BMP180;56792;50.644;17.984;2023-04-03T00:26:06;100258.60;;;2.82
69590;BMP180;56792;50.644;17.984;2023-04-03T00:28:34;100264.00;;;2.80
69590;BMP180;56792;50.644;17.984;2023-04-03T00:31:03;100270.60;;;2.80
69590;BMP180;56792;50.644;17.984;2023-04-03T00:33:31;100265.40;;;2.80
69590;BMP180;56792;50.644;17.984;2023-04-03T00:35:59;100274.60;;;2.80
69590;BMP180;56792;50.644;17.984;2023-04-03T00:38:27;100270.40;;;2.80
69590;BMP180;56792;50.644;17.984;2023-04-03T00:40:55;100273.60;;;2.80
69590;BMP180;56792;50.644;17.984;2023-04-03T00:43:26;100279.20;;;2.80
69590;BMP180;56792;50.644;17.984;2023-04-03T00:45:56;100277.80;;;2.70
69590;BMP180;56792;50.644;17.984;2023-04-03T00:48:29;100279.40;;;2.70
69590;BMP180;56792;50.644;17.984;2023-04-03T00:50:59;100280.60;;;2.70
69590;BMP180;56792;50.644;17.984;2023-04-03T00:53:35;100279.20;;;2.70
69590;BMP180;56792;50.644;17.984;2023-04-03T00:56:09;100285.80;;;2.70
69590;BMP180;56792;50.644;17.984;2023-04-03T00:58:43;100286.60;;;2.60
69590;BMP180;56792;50.644;17.984;2023-04-03T01:01:17;100287.60;;;2.60
69590;BMP180;56792;50.644;17.984;2023-04-03T01:03:47;100290.00;;;2.60
69590;BMP180;56792;50.644;17.984;2023-04-03T01:06:20;100289.00;;;2.60
69590;BMP180;56792;50.644;17.984;2023-04-03T01:08:51;100290.80;;;2.50
69590;BMP180;56792;50.644;17.984;2023-04-03T01:11:19;100299.00;;;2.50
69590;BMP180;56792;50.644;17.984;2023-04-03T01:13:48;100298.40;;;2.48
69590;BMP180;56792;50.644;17.984;2023-04-03T01:16:17;100300.60;;;2.40
69590;BMP180;56792;50.644;17.984;2023-04-03T01:18:47;100295.80;;;2.30
69590;BMP180;56792;50.644;17.984;2023-04-03T01:21:46;100294.80;;;2.20
69590;BMP180;56792;50.644;17.984;2023-04-03T01:24:33;100295.00;;;2.20
69590;BMP180;56792;50.644;17.984;2023-04-03T01:27:06;100290.60;;;2.10
69590;BMP180;56792;50.644;17.984;2023-04-03T01:29:34;100294.40;;;2.00
69590;BMP180;56792;50.644;17.984;2023-04-03T01:32:04;100289.80;;;1.90
69590;BMP180;56792;50.644;17.984;2023-04-03T01:34:33;100298.00;;;1.80
69590;BMP180;56792;50.644;17.984;2023-04-03T01:37:01;100297.00;;;1.78
69590;BMP180;56792;50.644;17.984;2023-04-03T01:39:29;100302.40;;;1.70
69590;BMP180;56792;50.644;17.984;2023-04-03T01:41:58;100304.40;;;1.60
69590;BMP180;56792;50.644;17.984;2023-04-03T01:44:32;100303.40;;;1.60
69590;BMP180;56792;50.644;17.984;2023-04-03T01:47:01;100308.00;;;1.50
69590;BMP180;56792;50.644;17.984;2023-04-03T01:49:29;100309.80;;;1.40
69590;BMP180;56792;50.644;17.984;2023-04-03T01:51:58;100317.00;;;1.40
69590;BMP180;56792;50.644;17.984;2023-04-03T01:54:26;100314.80;;;1.30
69590;BMP180;56792;50.644;17.984;2023-04-03T01:56:54;100323.00;;;1.20
69590;BMP180;56792;50.644;17.984;2023-04-03T01:59:23;100318.40;;;1.20
69590;BMP180;56792;50.644;17.984;2023-04-03T02:01:51;100316.40;;;1.16
69590;BMP180;56792;50.644;17.984;2023-04-03T02:04:20;100318.80;;;1.10
69590;BMP180;56792;50.644;17.984;2023-04-03T02:06:48;100316.60;;;1.10
69590;BMP180;56792;50.644;17.984;2023-04-03T02:09:16;100315.40;;;1.10
69590;BMP180;56792;50.644;17.984;2023-04-03T02:11:44;100321.80;;;1.10
69590;BMP180;56792;50.644;17.984;2023-04-03T02:14:12;100319.60;;;1.06
69590;BMP180;56792;50.644;17.984;2023-04-03T02:16:41;100319.80;;;1.00
69590;BMP180;56792;50.644;17.984;2023-04-03T02:19:09;100329.00;;;1.00
69590;BMP180;56792;50.644;17.984;2023-04-03T02:21:37;100327.40;;;1.00
69590;BMP180;56792;50.644;17.984;2023-04-03T02:24:06;100330.40;;;0.94
69590;BMP180;56792;50.644;17.984;2023-04-03T02:26:35;100333.80;;;0.90
69590;BMP180;56792;50.644;17.984;2023-04-03T02:29:04;100337.80;;;0.90
69590;BMP180;56792;50.644;17.984;2023-04-03T02:31:32;100333.60;;;0.80
69590;BMP180;56792;50.644;17.984;2023-04-03T02:34:01;100331.00;;;0.80
69590;BMP180;56792;50.644;17.984;2023-04-03T02:36:29;100333.40;;;0.80
69590;BMP180;56792;50.644;17.984;2023-04-03T02:38:59;100336.80;;;0.80
69590;BMP180;56792;50.644;17.984;2023-04-03T02:41:27;100338.80;;;0.70
69590;BMP180;56792;50.644;17.984;2023-04-03T02:44:03;100343.40;;;0.70
69590;BMP180;56792;50.644;17.984;2023-04-03T02:46:33;100349.40;;;0.70
69590;BMP180;56792;50.644;17.984;2023-04-03T02:49:01;100355.00;;;0.66
69590;BMP180;56792;50.644;17.984;2023-04-03T02:51:30;100354.60;;;0.60
69590;BMP180;56792;50.644;17.984;2023-04-03T02:53:58;100350.40;;;0.60
69590;BMP180;56792;50.644;17.984;2023-04-03T02:56:28;100358.40;;;0.60
69590;BMP180;56792;50.644;17.984;2023-04-03T02:58:57;100359.00;;;0.60
69590;BMP180;56792;50.644;17.984;2023-04-03T03:01:25;100362.60;;;0.60
69590;BMP180;56792;50.644;17.984;2023-04-03T03:03:55;100363.80;;;0.60
69590;BMP180;56792;50.644;17.984;2023-04-03T03:06:24;100360.40;;;0.60
69590;BMP180;56792;50.644;17.984;2023-04-03T03:08:52;100361.40;;;0.56
69590;BMP180;56792;50.644;17.984;2023-04-03T03:11:21;100364.60;;;0.50
69590;BMP180;56792;50.644;17.984;2023-04-03T03:13:49;100365.00;;;0.50
69590;BMP180;56792;50.644;17.984;2023-04-03T03:16:18;100371.00;;;0.50
69590;BMP180;56792;50.644;17.984;2023-04-03T03:18:46;100361.00;;;0.40
69590;BMP180;56792;50.644;17.984;2023-04-03T03:21:15;100367.40;;;0.40
69590;BMP180;56792;50.644;17.984;2023-04-03T03:23:43;100367.20;;;0.30
69590;BMP180;56792;50.644;17.984;2023-04-03T03:26:12;100364.60;;;0.30
69590;BMP180;56792;50.644;17.984;2023-04-03T03:28:40;100368.60;;;0.30
69590;BMP180;56792;50.644;17.984;2023-04-03T03:31:10;100368.00;;;0.28
69590;BMP180;56792;50.644;17.984;2023-04-03T03:33:39;100375.20;;;0.24
69590;BMP180;56792;50.644;17.984;2023-04-03T03:36:08;100371.60;;;0.20
69590;BMP180;56792;50.644;17.984;2023-04-03T03:38:37;100369.00;;;0.26
69590;BMP180;56792;50.644;17.984;2023-04-03T03:41:06;100372.60;;;0.20
69590;BMP180;56792;50.644;17.984;2023-04-03T03:43:34;100380.00;;;0.20
69590;BMP180;56792;50.644;17.984;2023-04-03T03:46:04;100377.60;;;0.18
69590;BMP180;56792;50.644;17.984;2023-04-03T03:48:32;100381.20;;;0.10
69590;BMP180;56792;50.644;17.984;2023-04-03T03:51:01;100376.60;;;0.00
69590;BMP180;56792;50.644;17.984;2023-04-03T03:53:31;100378.60;;;-0.10
69590;BMP180;56792;50.644;17.984;2023-04-03T03:56:04;100378.80;;;-0.10
69590;BMP180;56792;50.644;17.984;2023-04-03T03:58:33;100380.20;;;-0.20
69590;BMP180;56792;50.644;17.984;2023-04-03T04:01:03;100380.60;;;-0.20
69590;BMP180;56792;50.644;17.984;2023-04-03T04:03:33;100382.60;;;-0.20
69590;BMP180;56792;50.644;17.984;2023-04-03T04:06:03;100381.40;;;-0.30
69590;BMP180;56792;50.644;17.984;2023-04-03T04:08:31;100383.40;;;-0.30
69590;BMP180;56792;50.644;17.984;2023-04-03T04:11:00;100386.60;;;-0.30
69590;BMP180;56792;50.644;17.984;2023-04-03T04:13:29;100386.80;;;-0.40
69590;BMP180;56792;50.644;17.984;2023-04-03T04:15:58;100387.80;;;-0.40
69590;BMP180;56792;50.644;17.984;2023-04-03T04:18:26;100384.00;;;-0.50
69590;BMP180;56792;50.644;17.984;2023-04-03T04:20:54;100392.60;;;-0.50
69590;BMP180;56792;50.644;17.984;2023-04-03T04:23:23;100394.20;;;-0.60
69590;BMP180;56792;50.644;17.984;2023-04-03T04:25:52;100393.20;;;-0.60
69590;BMP180;56792;50.644;17.984;2023-04-03T04:28:21;100393.40;;;-0.68
69590;BMP180;56792;50.644;17.984;2023-04-03T04:30:51;100396.40;;;-0.70
69590;BMP180;56792;50.644;17.984;2023-04-03T04:33:19;100398.60;;;-0.70
69590;BMP180;56792;50.644;17.984;2023-04-03T04:35:49;100401.40;;;-0.72
69590;BMP180;56792;50.644;17.984;2023-04-03T04:38:18;100402.00;;;-0.80
69590;BMP180;56792;50.644;17.984;2023-04-03T04:40:47;100404.00;;;-0.80
69590;BMP180;56792;50.644;17.984;2023-04-03T04:43:16;100401.80;;;-0.80
69590;BMP180;56792;50.644;17.984;2023-04-03T04:45:45;100406.40;;;-0.80
69590;BMP180;56792;50.644;17.984;2023-04-03T04:48:13;100411.40;;;-0.84
69590;BMP180;56792;50.644;17.984;2023-04-03T04:50:42;100418.40;;;-0.80
69590;BMP180;56792;50.644;17.984;2023-04-03T04:53:10;100422.20;;;-0.82
69590;BMP180;56792;50.644;17.984;2023-04-03T04:55:38;100419.20;;;-0.90
69590;BMP180;56792;50.644;17.984;2023-04-03T04:58:06;100422.00;;;-0.90
69590;BMP180;56792;50.644;17.984;2023-04-03T05:00:36;100424.40;;;-0.90
69590;BMP180;56792;50.644;17.984;2023-04-03T05:03:04;100428.80;;;-0.90
69590;BMP180;56792;50.644;17.984;2023-04-03T05:05:33;100427.40;;;-0.90
69590;BMP180;56792;50.644;17.984;2023-04-03T05:08:01;100429.60;;;-0.90
69590;BMP180;56792;50.644;17.984;2023-04-03T05:10:30;100429.80;;;-0.80
69590;BMP180;56792;50.644;17.984;2023-04-03T05:12:59;100434.80;;;-0.80
69590;BMP180;56792;50.644;17.984;2023-04-03T05:15:28;100435.80;;;-0.80
69590;BMP180;56792;50.644;17.984;2023-04-03T05:17:56;100430.80;;;-0.80
69590;BMP180;56792;50.644;17.984;2023-04-03T05:20:25;100440.00;;;-0.76
69590;BMP180;56792;50.644;17.984;2023-04-03T05:22:53;100444.40;;;-0.70
69590;BMP180;56792;50.644;17.984;2023-04-03T05:25:22;100447.80;;;-0.70
69590;BMP180;56792;50.644;17.984;2023-04-03T05:27:50;100448.20;;;-0.68
69590;BMP180;56792;50.644;17.984;2023-04-03T05:30:19;100450.40;;;-0.60
69590;BMP180;56792;50.644;17.984;2023-04-03T05:32:48;100449.60;;;-0.60
69590;BMP180;56792;50.644;17.984;2023-04-03T05:35:22;100454.20;;;-0.50
69590;BMP180;56792;50.644;17.984;2023-04-03T05:37:52;100452.60;;;-0.50
69590;BMP180;56792;50.644;17.984;2023-04-03T05:40:21;100459.80;;;-0.40
69590;BMP180;56792;50.644;17.984;2023-04-03T05:42:50;100461.60;;;-0.34
69590;BMP180;56792;50.644;17.984;2023-04-03T05:45:19;100462.40;;;-0.28
69590;BMP180;56792;50.644;17.984;2023-04-03T05:47:48;100462.60;;;-0.20
69590;BMP180;56792;50.644;17.984;2023-04-03T05:50:16;100461.00;;;-0.10
69590;BMP180;56792;50.644;17.984;2023-04-03T05:52:48;100466.00;;;0.00
69590;BMP180;56792;50.644;17.984;2023-04-03T05:55:17;100467.60;;;0.20
69590;BMP180;56792;50.644;17.984;2023-04-03T05:57:46;100469.20;;;0.30
69590;BMP180;56792;50.644;17.984;2023-04-03T06:00:16;100476.60;;;0.40
69590;BMP180;56792;50.644;17.984;2023-04-03T06:02:48;100474.00;;;0.60
69590;BMP180;56792;50.644;17.984;2023-04-03T06:05:19;100480.00;;;0.70
69590;BMP180;56792;50.644;17.984;2023-04-03T06:07:47;100477.40;;;0.80
69590;BMP180;56792;50.644;17.984;2023-04-03T06:10:17;100479.40;;;0.80
69590;BMP180;56792;50.644;17.984;2023-04-03T06:12:46;100481.00;;;0.90
69590;BMP180;56792;50.644;17.984;2023-04-03T06:15:14;100478.60;;;1.00
69590;BMP180;56792;50.644;17.984;2023-04-03T06:17:44;100484.40;;;1.10
69590;BMP180;56792;50.644;17.984;2023-04-03T06:20:13;100486.00;;;1.24
69590;BMP180;56792;50.644;17.984;2023-04-03T06:22:42;100485.00;;;1.30
69590;BMP180;56792;50.644;17.984;2023-04-03T06:25:12;100481.80;;;1.50
69590;BMP180;56792;50.644;17.984;2023-04-03T06:27:40;100483.60;;;1.60
69590;BMP180;56792;50.644;17.984;2023-04-03T06:30:10;100490.20;;;1.70
69590;BMP180;56792;50.644;17.984;2023-04-03T06:32:39;100490.60;;;1.80
69590;BMP180;56792;50.644;17.984;2023-04-03T06:35:10;100486.60;;;1.90
69590;BMP180;56792;50.644;17.984;2023-04-03T06:37:38;100487.80;;;2.08
69590;BMP180;56792;50.644;17.984;2023-04-03T06:40:15;100485.80;;;2.30
69590;BMP180;56792;50.644;17.984;2023-04-03T06:42:47;100497.00;;;2.50
69590;BMP180;56792;50.644;17.984;2023-04-03T06:45:15;100497.20;;;2.60
69590;BMP180;56792;50.644;17.984;2023-04-03T06:47:44;100492.60;;;2.80
69590;BMP180;56792;50.644;17.984;2023-04-03T06:50:13;100496.80;;;3.10
69590;BMP180;56792;50.644;17.984;2023-04-03T06:52:42;100501.00;;;3.30
69590;BMP180;56792;50.644;17.984;2023-04-03T06:55:11;100503.80;;;3.40
69590;BMP180;56792;50.644;17.984;2023-04-03T06:57:39;100505.40;;;3.60
69590;BMP180;56792;50.644;17.984;2023-04-03T07:00:10;100508.20;;;3.60
69590;BMP180;56792;50.644;17.984;2023-04-03T07:02:39;100513.40;;;3.70
69590;BMP180;56792;50.644;17.984;2023-04-03T07:05:09;100507.00;;;3.80
69590;BMP180;56792;50.644;17.984;2023-04-03T07:07:37;100518.20;;;3.90
69590;BMP180;56792;50.644;17.984;2023-04-03T07:10:09;100518.60;;;3.98
69590;BMP180;56792;50.644;17.984;2023-04-03T07:12:38;100522.60;;;4.20
69590;BMP180;56792;50.644;17.984;2023-04-03T07:15:10;100529.80;;;4.40
69590;BMP180;56792;50.644;17.984;2023-04-03T07:17:39;100528.20;;;4.76
69590;BMP180;56792;50.644;17.984;2023-04-03T07:20:10;100531.00;;;5.10
69590;BMP180;56792;50.644;17.984;2023-04-03T07:22:39;100531.60;;;5.26
69590;BMP180;56792;50.644;17.984;2023-04-03T07:25:09;100540.00;;;5.52
69590;BMP180;56792;50.644;17.984;2023-04-03T07:27:38;100542.40;;;5.66
69590;BMP180;56792;50.644;17.984;2023-04-03T07:30:09;100544.60;;;5.44
69590;BMP180;56792;50.644;17.984;2023-04-03T07:32:37;100545.40;;;5.30
69590;BMP180;56792;50.644;17.984;2023-04-03T07:35:07;100546.40;;;5.40
69590;BMP180;56792;50.644;17.984;2023-04-03T07:37:35;100546.20;;;5.60
69590;BMP180;56792;50.644;17.984;2023-04-03T07:40:06;100549.60;;;5.80
69590;BMP180;56792;50.644;17.984;2023-04-03T07:42:36;100547.40;;;6.00
69590;BMP180;56792;50.644;17.984;2023-04-03T07:45:06;100551.60;;;6.12
69590;BMP180;56792;50.644;17.984;2023-04-03T07:47:34;100551.00;;;6.30
69590;BMP180;56792;50.644;17.984;2023-04-03T07:50:03;100548.60;;;6.50
69590;BMP180;56792;50.644;17.984;2023-04-03T07:52:31;100548.60;;;6.76
69590;BMP180;56792;50.644;17.984;2023-04-03T07:54:59;100543.60;;;6.90
69590;BMP180;56792;50.644;17.984;2023-04-03T07:57:27;100543.60;;;7.00
69590;BMP180;56792;50.644;17.984;2023-04-03T07:59:55;100547.20;;;7.14
69590;BMP180;56792;50.644;17.984;2023-04-03T08:02:24;100556.00;;;7.36
69590;BMP180;56792;50.644;17.984;2023-04-03T08:04:52;100548.80;;;7.50
69590;BMP180;56792;50.644;17.984;2023-04-03T08:07:20;100547.40;;;7.80
69590;BMP180;56792;50.644;17.984;2023-04-03T08:09:49;100547.60;;;7.94
69590;BMP180;56792;50.644;17.984;2023-04-03T08:12:18;100548.00;;;8.10
69590;BMP180;56792;50.644;17.984;2023-04-03T08:14:46;100550.40;;;8.00
69590;BMP180;56792;50.644;17.984;2023-04-03T08:17:14;100555.60;;;8.00
69590;BMP180;56792;50.644;17.984;2023-04-03T08:19:42;100553.60;;;8.10
69590;BMP180;56792;50.644;17.984;2023-04-03T08:22:11;100556.60;;;8.10
69590;BMP180;56792;50.644;17.984;2023-04-03T08:24:39;100559.00;;;8.16
69590;BMP180;56792;50.644;17.984;2023-04-03T08:27:07;100561.60;;;7.82
69590;BMP180;56792;50.644;17.984;2023-04-03T08:29:35;100555.80;;;7.40
69590;BMP180;56792;50.644;17.984;2023-04-03T08:32:06;100550.60;;;7.30
69590;BMP180;56792;50.644;17.984;2023-04-03T08:34:34;100548.00;;;7.62
69590;BMP180;56792;50.644;17.984;2023-04-03T08:37:04;100554.60;;;8.00
69590;BMP180;56792;50.644;17.984;2023-04-03T08:39:32;100555.20;;;8.10
69590;BMP180;56792;50.644;17.984;2023-04-03T08:42:07;100561.80;;;8.30
69590;BMP180;56792;50.644;17.984;2023-04-03T08:44:50;100565.40;;;8.58
69590;BMP180;56792;50.644;17.984;2023-04-03T08:47:28;100564.40;;;8.38
69590;BMP180;56792;50.644;17.984;2023-04-03T08:50:01;100559.40;;;8.10
69590;BMP180;56792;50.644;17.984;2023-04-03T08:52:37;100559.00;;;7.90
69590;BMP180;56792;50.644;17.984;2023-04-03T08:55:17;100555.00;;;7.90
69590;BMP180;56792;50.644;17.984;2023-04-03T08:57:48;100556.80;;;7.80
69590;BMP180;56792;50.644;17.984;2023-04-03T09:00:23;100560.20;;;7.70
69590;BMP180;56792;50.644;17.984;2023-04-03T09:02:53;100556.40;;;7.82
69590;BMP180;56792;50.644;17.984;2023-04-03T09:05:39;100556.40;;;7.80
69590;BMP180;56792;50.644;17.984;2023-04-03T09:08:21;100554.00;;;7.88
69590;BMP180;56792;50.644;17.984;2023-04-03T09:10:55;100548.60;;;8.78
69590;BMP180;56792;50.644;17.984;2023-04-03T09:13:34;100553.80;;;9.56
69590;BMP180;56792;50.644;17.984;2023-04-03T09:16:20;100557.60;;;10.20
69590;BMP180;56792;50.644;17.984;2023-04-03T09:18:57;100555.40;;;10.44
69590;BMP180;56792;50.644;17.984;2023-04-03T09:21:38;100558.20;;;11.96
69590;BMP180;56792;50.644;17.984;2023-04-03T09:24:12;100567.00;;;14.02
69590;BMP180;56792;50.644;17.984;2023-04-03T09:26:48;100561.20;;;15.28
69590;BMP180;56792;50.644;17.984;2023-04-03T09:29:23;100572.20;;;17.14
69590;BMP180;56792;50.644;17.984;2023-04-03T09:31:57;100576.60;;;18.80
69590;BMP180;56792;50.644;17.984;2023-04-03T09:34:30;100582.60;;;18.50
69590;BMP180;56792;50.644;17.984;2023-04-03T09:37:02;100579.00;;;20.06
69590;BMP180;56792;50.644;17.984;2023-04-03T09:39:51;100582.40;;;21.36
69590;BMP180;56792;50.644;17.984;2023-04-03T09:42:24;100579.00;;;22.72
69590;BMP180;56792;50.644;17.984;2023-04-03T09:44:58;100593.40;;;23.60
69590;BMP180;56792;50.644;17.984;2023-04-03T09:47:28;100592.00;;;21.60
69590;BMP180;56792;50.644;17.984;2023-04-03T09:50:21;100589.40;;;19.00
69590;BMP180;56792;50.644;17.984;2023-04-03T09:52:52;100586.20;;;16.76
69590;BMP180;56792;50.644;17.984;2023-04-03T09:55:22;100581.00;;;17.88
69590;BMP180;56792;50.644;17.984;2023-04-03T09:57:55;100588.20;;;20.16
69590;BMP180;56792;50.644;17.984;2023-04-03T10:00:28;100596.80;;;19.22
69590;BMP180;56792;50.644;17.984;2023-04-03T10:02:58;100586.40;;;17.18
69590;BMP180;56792;50.644;17.984;2023-04-03T10:05:33;100583.60;;;15.74
69590;BMP180;56792;50.644;17.984;2023-04-03T10:08:23;100586.80;;;14.70
69590;BMP180;56792;50.644;17.984;2023-04-03T10:11:12;100580.60;;;17.42
69590;BMP180;56792;50.644;17.984;2023-04-03T10:13:56;100595.20;;;18.74
69590;BMP180;56792;50.644;17.984;2023-04-03T10:16:32;100593.20;;;17.58
69590;BMP180;56792;50.644;17.984;2023-04-03T10:19:24;100586.20;;;15.88
69590;BMP180;56792;50.644;17.984;2023-04-03T10:22:01;100592.40;;;14.40
69590;BMP180;56792;50.644;17.984;2023-04-03T10:24:44;100594.40;;;13.34
69590;BMP180;56792;50.644;17.984;2023-04-03T10:27:26;100590.20;;;12.46
69590;BMP180;56792;50.644;17.984;2023-04-03T10:30:07;100593.60;;;11.98
69590;BMP180;56792;50.644;17.984;2023-04-03T10:33:00;100591.00;;;12.06
69590;BMP180;56792;50.644;17.984;2023-04-03T10:35:43;100595.60;;;11.86
69590;BMP180;56792;50.644;17.984;2023-04-03T10:38:20;100598.60;;;13.30
69590;BMP180;56792;50.644;17.984;2023-04-03T10:41:00;100594.40;;;12.70
69590;BMP180;56792;50.644;17.984;2023-04-03T10:43:39;100574.60;;;13.70
69590;BMP180;56792;50.644;17.984;2023-04-03T10:46:15;100588.00;;;16.76
69590;BMP180;56792;50.644;17.984;2023-04-03T10:49:05;100587.20;;;18.80
69590;BMP180;56792;50.644;17.984;2023-04-03T10:51:45;100591.40;;;21.18
69590;BMP180;56792;50.644;17.984;2023-04-03T10:54:18;100586.80;;;23.12
69590;BMP180;56792;50.644;17.984;2023-04-03T10:56:53;100597.00;;;21.78
69590;BMP180;56792;50.644;17.984;2023-04-03T10:59:30;100586.00;;;22.26
69590;BMP180;56792;50.644;17.984;2023-04-03T11:02:06;100596.60;;;21.90
69590;BMP180;56792;50.644;17.984;2023-04-03T11:04:40;100596.80;;;19.86
69590;BMP180;56792;50.644;17.984;2023-04-03T11:07:15;100598.20;;;18.02
69590;BMP180;56792;50.644;17.984;2023-04-03T11:09:49;100595.20;;;16.26
69590;BMP180;56792;50.644;17.984;2023-04-03T11:12:26;100597.20;;;15.72
69590;BMP180;56792;50.644;17.984;2023-04-03T11:14:57;100587.60;;;16.30
69590;BMP180;56792;50.644;17.984;2023-04-03T11:17:33;100592.40;;;16.04
69590;BMP180;56792;50.644;17.984;2023-04-03T11:20:16;100593.20;;;14.86
69590;BMP180;56792;50.644;17.984;2023-04-03T11:22:51;100582.60;;;14.62
69590;BMP180;56792;50.644;17.984;2023-04-03T11:25:24;100588.80;;;18.00
69590;BMP180;56792;50.644;17.984;2023-04-03T11:27:57;100584.60;;;18.42
69590;BMP180;56792;50.644;17.984;2023-04-03T11:30:33;100592.80;;;17.10
69590;BMP180;56792;50.644;17.984;2023-04-03T11:33:27;100587.20;;;15.66
69590;BMP180;56792;50.644;17.984;2023-04-03T11:36:05;100586.40;;;15.60
69590;BMP180;56792;50.644;17.984;2023-04-03T11:38:38;100586.60;;;18.70
69590;BMP180;56792;50.644;17.984;2023-04-03T11:41:10;100584.60;;;20.90
69590;BMP180;56792;50.644;17.984;2023-04-03T11:43:55;100587.80;;;22.36
69590;BMP180;56792;50.644;17.984;2023-04-03T11:46:51;100579.00;;;22.90
69590;BMP180;56792;50.644;17.984;2023-04-03T11:49:58;100583.20;;;23.10
69590;BMP180;56792;50.644;17.984;2023-04-03T11:53:03;100575.00;;;21.74
69590;BMP180;56792;50.644;17.984;2023-04-03T11:56:01;100576.40;;;24.00
69590;BMP180;56792;50.644;17.984;2023-04-03T11:58:32;100576.80;;;24.66
69590;BMP180;56792;50.644;17.984;2023-04-03T12:01:07;100570.60;;;24.20
69590;BMP180;56792;50.644;17.984;2023-04-03T12:04:08;100573.40;;;22.60
69590;BMP180;56792;50.644;17.984;2023-04-03T12:07:18;100572.40;;;24.50
69590;BMP180;56792;50.644;17.984;2023-04-03T12:10:17;100569.00;;;26.36
69590;BMP180;56792;50.644;17.984;2023-04-03T12:12:58;100563.60;;;27.34
69590;BMP180;56792;50.644;17.984;2023-04-03T12:15:54;100559.60;;;26.10
69590;BMP180;56792;50.644;17.984;2023-04-03T12:19:00;100574.20;;;24.44
69590;BMP180;56792;50.644;17.984;2023-04-03T12:22:12;100571.60;;;21.44
69590;BMP180;56792;50.644;17.984;2023-04-03T12:24:42;100572.60;;;19.84
69590;BMP180;56792;50.644;17.984;2023-04-03T12:27:33;100561.00;;;21.12
69590;BMP180;56792;50.644;17.984;2023-04-03T12:30:15;100555.00;;;23.42
69590;BMP180;56792;50.644;17.984;2023-04-03T12:32:57;100548.80;;;24.42
69590;BMP180;56792;50.644;17.984;2023-04-03T12:35:35;100565.20;;;23.54
69590;BMP180;56792;50.644;17.984;2023-04-03T12:38:35;100572.40;;;21.32
69590;BMP180;56792;50.644;17.984;2023-04-03T12:41:23;100559.20;;;21.88
69590;BMP180;56792;50.644;17.984;2023-04-03T12:44:36;100562.00;;;24.24
69590;BMP180;56792;50.644;17.984;2023-04-03T12:47:23;100563.40;;;25.82
69590;BMP180;56792;50.644;17.984;2023-04-03T12:49:53;100569.00;;;23.60
69590;BMP180;56792;50.644;17.984;2023-04-03T12:52:33;100573.00;;;21.18
69590;BMP180;56792;50.644;17.984;2023-04-03T12:55:08;100554.80;;;20.96
69590;BMP180;56792;50.644;17.984;2023-04-03T12:57:42;100555.00;;;23.56
69590;BMP180;56792;50.644;17.984;2023-04-03T13:00:34;100551.60;;;25.34
69590;BMP180;56792;50.644;17.984;2023-04-03T13:03:05;100568.20;;;26.26
69590;BMP180;56792;50.644;17.984;2023-04-03T13:05:35;100564.00;;;23.84
69590;BMP180;56792;50.644;17.984;2023-04-03T13:08:10;100568.40;;;21.48
69590;BMP180;56792;50.644;17.984;2023-04-03T13:10:53;100566.40;;;19.46
69590;BMP180;56792;50.644;17.984;2023-04-03T13:13:22;100560.20;;;18.88
69590;BMP180;56792;50.644;17.984;2023-04-03T13:15:51;100568.40;;;18.00
69590;BMP180;56792;50.644;17.984;2023-04-03T13:18:26;100559.20;;;19.20
69590;BMP180;56792;50.644;17.984;2023-04-03T13:21:03;100554.80;;;21.80
69590;BMP180;56792;50.644;17.984;2023-04-03T13:23:36;100560.00;;;23.82
69590;BMP180;56792;50.644;17.984;2023-04-03T13:26:07;100553.80;;;25.26
69590;BMP180;56792;50.644;17.984;2023-04-03T13:28:38;100555.80;;;26.42
69590;BMP180;56792;50.644;17.984;2023-04-03T13:31:19;100551.80;;;27.00
69590;BMP180;56792;50.644;17.984;2023-04-03T13:33:57;100550.40;;;27.76
69590;BMP180;56792;50.644;17.984;2023-04-03T13:36:31;100563.00;;;26.24
69590;BMP180;56792;50.644;17.984;2023-04-03T13:39:05;100559.20;;;22.94
69590;BMP180;56792;50.644;17.984;2023-04-03T13:41:36;100557.40;;;21.10
69590;BMP180;56792;50.644;17.984;2023-04-03T13:44:33;100567.80;;;19.92
69590;BMP180;56792;50.644;17.984;2023-04-03T13:47:18;100564.00;;;17.98
69590;BMP180;56792;50.644;17.984;2023-04-03T13:50:00;100565.20;;;17.04
69590;BMP180;56792;50.644;17.984;2023-04-03T13:52:32;100564.60;;;17.24
69590;BMP180;56792;50.644;17.984;2023-04-03T13:55:19;100557.60;;;17.60
69590;BMP180;56792;50.644;17.984;2023-04-03T13:57:57;100553.20;;;17.24
69590;BMP180;56792;50.644;17.984;2023-04-03T14:00:50;100552.60;;;17.00
69590;BMP180;56792;50.644;17.984;2023-04-03T14:03:25;100558.80;;;16.80
69590;BMP180;56792;50.644;17.984;2023-04-03T14:05:54;100555.60;;;15.96
69590;BMP180;56792;50.644;17.984;2023-04-03T14:08:22;100554.00;;;15.16
69590;BMP180;56792;50.644;17.984;2023-04-03T14:10:51;100550.40;;;14.56
69590;BMP180;56792;50.644;17.984;2023-04-03T14:13:22;100553.80;;;13.72
69590;BMP180;56792;50.644;17.984;2023-04-03T14:15:50;100544.80;;;13.00
69590;BMP180;56792;50.644;17.984;2023-04-03T14:18:20;100544.20;;;12.44
69590;BMP180;56792;50.644;17.984;2023-04-03T14:20:50;100541.60;;;12.30
69590;BMP180;56792;50.644;17.984;2023-04-03T14:23:18;100546.40;;;12.30
69590;BMP180;56792;50.644;17.984;2023-04-03T14:25:46;100542.20;;;12.30